Home > Products > Valid Products > TAF

000
FTUS44 KCRP 270500
TAFLRD
TAF
KLRD 270520Z 2706/2806 VRB04KT P6SM FEW250=



000
FTUS44 KCRP 270500
TAFALI
TAF
KALI 270520Z 2706/2806 33005KT P6SM SKC=



000
FTUS44 KCRP 270500
TAFLRD
TAF
KLRD 270520Z 2706/2806 VRB04KT P6SM FEW250=



000
FTUS44 KCRP 270500
TAFALI
TAF
KALI 270520Z 2706/2806 33005KT P6SM SKC=



000
FTUS44 KCRP 270500
TAFCRP
TAF
KCRP 270520Z 2706/2806 34006KT P6SM SKC=



000
FTUS44 KCRP 270500
TAFVCT
TAF
KVCT 270520Z 2706/2806 33005KT P6SM SKC=



000
FTUS44 KCRP 270500
TAFCRP
TAF
KCRP 270520Z 2706/2806 34006KT P6SM SKC=



000
FTUS44 KCRP 270500
TAFVCT
TAF
KVCT 270520Z 2706/2806 33005KT P6SM SKC=



000
FTUS44 KCRP 270300 AAA
TAFCRP
TAF AMD
KCRP 270349Z 2704/2724 34007KT P6SM SCT120 BKN250
     FM270800 33007KT P6SM SKC=



000
FTUS44 KCRP 262300
TAFVCT
TAF
KVCT 262321Z 2700/2724 35014G21KT P6SM SCT060 BKN120
     FM270100 35011KT P6SM BKN150
     FM270700 30005KT P6SM SKC=



000
FTUS44 KCRP 262300
TAFALI
TAF
KALI 262321Z 2700/2724 36014G22KT P6SM SCT030 BKN100
      TEMPO 2700/2702 5SM -TSRA BKN070CB
     FM270200 35012KT P6SM FEW040 BKN150
     FM270700 33006KT P6SM SKC=



000
FTUS44 KCRP 262300
TAFLRD
TAF
KLRD 262321Z 2700/2724 35014KT P6SM SCT060 BKN120
      TEMPO 2700/2701 -SHRA BKN050
     FM270100 35010KT P6SM SCT050 BKN150
     FM270700 VRB04KT P6SM SCT250=



000
FTUS44 KCRP 262300
TAFCRP
TAF
KCRP 262321Z 2700/2724 35018G24KT P6SM SCT030 BKN090
      TEMPO 2700/2702 5SM -TSRA BKN070CB
     FM270200 36012KT P6SM SCT040 BKN150
     FM270800 33008KT P6SM SKC=



000
FTUS44 KCRP 262200 AAC
TAFCRP
TAF AMD
KCRP 262218Z 2622/2718 36023G31KT P6SM VCTS SCT025 BKN060CB
      TEMPO 2622/2624 5SM -TSRA BKN025 OVC050CB
     FM270100 36012KT P6SM FEW040 BKN250
     FM270800 33008KT P6SM SKC=



000
FTUS44 KCRP 262200 AAB
TAFCRP
TAF AMD
KCRP 262200Z 2622/2718 36024G36KT P6SM SCT025 BKN100
     FM262230 36018G28KT P6SM VCTS SCT025 BKN060CB
      TEMPO 2623/2701 6SM -TSRA BKN025 OVC050CB
     FM270100 36012KT P6SM FEW040 BKN250
     FM270800 33008KT P6SM SKC=



000
FTUS44 KCRP 262100 AAA
TAFALI
TAF AMD
KALI 262111Z 2621/2718 36021G28KT P6SM SCT025 BKN070
      TEMPO 2621/2623 5SM -TSRA BKN025CB
     FM270100 35012KT P6SM FEW040 BKN250
     FM270700 32006KT P6SM SKC=



000
FTUS44 KCRP 262100 AAA
TAFALI
TAF AMD
KALI 262111Z 2621/2718 36021G28KT P6SM SCT025 BKN070
      TEMPO 2621/2623 5SM -TSRA BKN025CB
     FM270100 35012KT P6SM FEW040 BKN250
     FM270700 32006KT P6SM SKC=



000
FTUS44 KCRP 262100 AAA
TAFCRP
TAF AMD
KCRP 262110Z 2621/2718 36024G36KT P6SM SCT025 BKN100
     FM262230 36018G28KT P6SM SCT025 BKN060
      TEMPO 2623/2701 6SM -SHRA BKN025
     FM270100 36012KT P6SM FEW040 BKN250
     FM270800 33008KT P6SM SKC=



000
FTUS44 KCRP 262100 AAA
TAFCRP
TAF AMD
KCRP 262110Z 2621/2718 36024G36KT P6SM SCT025 BKN100
     FM262230 36018G28KT P6SM SCT025 BKN060
      TEMPO 2623/2701 6SM -SHRA BKN025
     FM270100 36012KT P6SM FEW040 BKN250
     FM270800 33008KT P6SM SKC=



000
FTUS44 KCRP 262000 AAA
TAFLRD
TAF AMD
KLRD 262036Z 2621/2718 35015G25KT P6SM VCTS BKN060CB BKN200
      TEMPO 2621/2623 32018G30KT 5SM -TSRA BR BKN050CB
     FM270100 35010KT P6SM SCT050 BKN250
     FM270700 32006KT P6SM SCT250=



000
FTUS44 KCRP 261700
TAFALI
TAF
KALI 261735Z 2618/2718 36018G24KT P6SM BKN022 OVC250
     FM262100 35016G21KT P6SM SCT025 BKN150
     FM270100 35008KT P6SM FEW040 BKN250
     FM270700 32006KT P6SM SKC=



000
FTUS44 KCRP 261700
TAFCRP
TAF
KCRP 261735Z 2618/2718 36019G27KT P6SM BKN025 OVC100
     FM262100 36018G28KT P6SM SCT035 BKN120
     FM270100 36012KT P6SM FEW040 BKN250
     FM270800 33008KT P6SM SKC=



000
FTUS44 KCRP 261700
TAFLRD
TAF
KLRD 261735Z 2618/2718 35019G26KT P6SM SCT035 BKN200
      TEMPO 2618/2620 BKN035 OVC200
     FM270100 35010KT P6SM SCT050 BKN250
     FM270700 32006KT P6SM SCT250=



000
FTUS44 KCRP 261700
TAFVCT
TAF
KVCT 261735Z 2618/2718 35017G26KT P6SM SCT025 BKN250
      TEMPO 2618/2620 BKN025 OVC150
     FM270100 35012KT P6SM BKN150
     FM270700 30005KT P6SM SKC=



000
FTUS44 KCRP 261700
TAFCRP
TAF
KCRP 261735Z 2618/2718 36019G27KT P6SM BKN025 OVC100
     FM262100 36018G28KT P6SM SCT035 BKN120
     FM270100 36012KT P6SM FEW040 BKN250
     FM270800 33008KT P6SM SKC=



000
FTUS44 KCRP 261700
TAFALI
TAF
KALI 261735Z 2618/2718 36018G24KT P6SM BKN022 OVC250
     FM262100 35016G21KT P6SM SCT025 BKN150
     FM270100 35008KT P6SM FEW040 BKN250
     FM270700 32006KT P6SM SKC=



000
FTUS44 KCRP 261600 AAC
TAFLRD
TAF AMD
KLRD 261629Z 2616/2712 36020G30KT P6SM BKN025 OVC150
     FM261800 35019G26KT P6SM BKN035 OVC200
     FM270100 35010KT P6SM SCT050 BKN250
     FM270700 32006KT P6SM SCT250=



000
FTUS44 KCRP 261600 AAC
TAFLRD
TAF AMD
KLRD 261629Z 2616/2712 36020G30KT P6SM BKN025 OVC150
     FM261800 35019G26KT P6SM BKN035 OVC200
     FM270100 35010KT P6SM SCT050 BKN250
     FM270700 32006KT P6SM SCT250=



000
FTUS44 KCRP 261600 AAB
TAFVCT
TAF AMD
KVCT 261626Z 2616/2712 35018G28KT P6SM OVC025
     FM261900 35018G28KT P6SM SCT025 BKN250
     FM270200 35012KT P6SM SCT050=



000
FTUS44 KCRP 261600 AAB
TAFVCT
TAF AMD
KVCT 261626Z 2616/2712 35018G28KT P6SM OVC025
     FM261900 35018G28KT P6SM SCT025 BKN250
     FM270200 35012KT P6SM SCT050=



000
FTUS44 KCRP 261500 AAB
TAFLRD
TAF AMD
KLRD 261502Z 2615/2712 36018G28KT P6SM VCSH SCT015 BKN100
      TEMPO 2615/2617 5SM SHRA BR BKN015
     FM261700 35018G25KT P6SM SCT030
     FM270100 03008KT P6SM SCT050=



000
FTUS44 KCRP 261400 AAA
TAFCRP
TAF AMD
KCRP 261410Z 2614/2712 36008KT 3SM -SHRA BR BKN008 OVC011
     FM261530 36018G32KT P6SM VCSH OVC015
     FM261700 36019G27KT P6SM BKN025 OVC100
     FM262100 36018G28KT P6SM SCT035 BKN120
     FM270100 36012KT P6SM BKN050=



000
FTUS44 KCRP 261400 AAA
TAFLRD
TAF AMD
KLRD 261405Z 2614/2712 36008KT 5SM -SHRA BR BKN040
     FM261500 36018G28KT P6SM VCSH SCT030 BKN100
      TEMPO 2615/2617 5SM SHRA BR BKN040
     FM261700 35018G25KT P6SM SCT030
     FM270100 03008KT P6SM SCT050=



000
FTUS44 KCRP 261200 AAA
TAFVCT
TAF AMD
KVCT 261217Z 2612/2712 34010KT 6SM -SHRA BR OVC008
      TEMPO 2612/2614 3SM SHRA BR OVC004
     FM261500 35018G28KT P6SM OVC018
     FM261900 35018G28KT P6SM SCT025
     FM270200 35012KT P6SM SCT050=



000
FTUS44 KCRP 261200 AAA
TAFVCT
TAF AMD
KVCT 261217Z 2612/2712 34010KT 6SM -SHRA BR OVC008
      TEMPO 2612/2614 3SM SHRA BR OVC004
     FM261500 35018G28KT P6SM OVC018
     FM261900 35018G28KT P6SM SCT025
     FM270200 35012KT P6SM SCT050=



000
FTUS44 KCRP 261100
TAFVCT
TAF
KVCT 261124Z 2612/2712 34010KT 6SM -SHRA BR OVC008
     FM261500 35018G28KT P6SM OVC018
     FM261900 35018G28KT P6SM SCT025
     FM270200 35012KT P6SM SCT050=



000
FTUS44 KCRP 261100
TAFLRD
TAF
KLRD 261124Z 2612/2712 36008KT P6SM -SHRA BKN040
     FM261400 36018G28KT P6SM BKN030
     FM261800 35018G25KT P6SM SCT030
     FM270100 03008KT P6SM SCT050=



000
FTUS44 KCRP 261100
TAFALI
TAF
KALI 261124Z 2612/2712 16008KT 4SM -SHRA BR OVC008
     FM261530 36015G22KT P6SM OVC015
     FM261800 35018G25KT P6SM SCT025
     FM270100 35008KT P6SM SCT050=



000
FTUS44 KCRP 261100
TAFCRP
TAF
KCRP 261124Z 2612/2712 15004KT 1SM BR OVC002
      TEMPO 2612/2614 1/4SM FG
     FM261400 02008KT P6SM -SHRA BKN008
     FM261600 36018G28KT P6SM OVC015
     FM262100 36018G28KT P6SM BKN025
     FM270100 36012KT P6SM BKN050=



000
FTUS44 KCRP 261100 AAA
TAFCRP
TAF AMD
KCRP 261102Z 2611/2706 18004KT 1SM BR OVC002
      TEMPO 2611/2614 1/4SM FG
     FM261400 30008KT P6SM -SHRA BKN008 OVC015
     FM261500 36018G28KT P6SM VCSH OVC015
     FM262100 36018G28KT P6SM BKN025 BKN050
     FM270000 36015KT P6SM BKN050=



000
FTUS44 KCRP 260600 AAA
TAFLRD
TAF AMD
KLRD 260611Z 2606/2706 13008KT P6SM OVC035
      TEMPO 2606/2607 15025G35KT
     FM260800 15006KT P6SM BKN008 OVC015
     FM261000 VRB05KT 4SM BR OVC004
     FM261200 36010KT P6SM -SHRA BKN008 OVC015
     FM261400 36018G28KT P6SM OVC025
     FM262000 35018G25KT P6SM SCT030 BKN050
     FM270100 03008KT P6SM SCT050=



000
FTUS44 KCRP 260600 AAA
TAFLRD
TAF AMD
KLRD 260611Z 2606/2706 13008KT P6SM OVC035
      TEMPO 2606/2607 15025G35KT
     FM260800 15006KT P6SM BKN008 OVC015
     FM261000 VRB05KT 4SM BR OVC004
     FM261200 36010KT P6SM -SHRA BKN008 OVC015
     FM261400 36018G28KT P6SM OVC025
     FM262000 35018G25KT P6SM SCT030 BKN050
     FM270100 03008KT P6SM SCT050=



000
FTUS44 KCRP 260500
TAFVCT
TAF
KVCT 260529Z 2606/2706 15006KT P6SM SCT012 OVC025
     FM260700 17004KT 5SM BR BKN008 OVC015
      TEMPO 2608/2612 2SM -SHRA BR OVC008
     FM261200 34010KT 4SM -SHRA BR OVC005
     FM261430 35018G28KT P6SM VCSH BKN018 BKN050
     FM261900 35015G25KT P6SM SCT025 BKN050
     FM270200 35012KT P6SM SCT050=



000
FTUS44 KCRP 260500
TAFALI
TAF
KALI 260529Z 2606/2706 14005KT 6SM BR OVC008
     FM260800 13005KT 3SM BR OVC004
     FM261200 30007KT P6SM -SHRA BKN012 OVC025
     FM261430 36015G22KT P6SM VCSH OVC015
     FM261900 35018G25KT P6SM SCT025 BKN050
     FM270000 35008KT P6SM SCT050=



000
FTUS44 KCRP 260500
TAFLRD
TAF
KLRD 260529Z 2606/2706 13008KT P6SM OVC035
     FM260800 15006KT P6SM BKN008 OVC015
     FM261000 VRB05KT 4SM BR OVC004
     FM261200 36010KT P6SM -SHRA BKN008 OVC015
     FM261400 36018G28KT P6SM OVC025
     FM262000 35018G25KT P6SM SCT030 BKN050
     FM270100 03008KT P6SM SCT050=



000
FTUS44 KCRP 260500
TAFCRP
TAF
KCRP 260529Z 2606/2706 15006KT 6SM BR OVC008
     FM261000 15004KT 4SM BR OVC003
     FM261300 30008KT P6SM -SHRA BKN008 OVC015
     FM261500 36018G28KT P6SM VCSH OVC015
     FM262100 36018G28KT P6SM BKN025 BKN050
     FM270000 36015KT P6SM BKN050=



000
FTUS44 KCRP 260200 AAA
TAFLRD
TAF AMD
KLRD 260241Z 2603/2624 12010KT P6SM BKN035 OVC250
     FM260500 13008KT P6SM BKN018 OVC035
     FM260700 15006KT P6SM BKN008 OVC015
     FM261000 VRB05KT 4SM BR OVC004
     FM261200 36010KT P6SM -SHRA BKN008 OVC015
     FM261400 36018G26KT P6SM OVC025
     FM262000 35017G25KT P6SM SCT030 BKN050=



000
FTUS44 KCRP 260200 AAA
TAFVCT
TAF AMD
KVCT 260240Z 2603/2624 14007KT P6SM SCT025 BKN250
      TEMPO 2603/2605 BKN025 OVC250
     FM260500 15006KT P6SM SCT012 OVC025
     FM260700 17004KT 5SM BR BKN008 OVC015
      TEMPO 2608/2612 2SM -SHRA BR OVC008
     FM261200 34010KT 4SM -SHRA BR OVC005
     FM261330 35018G25KT P6SM VCSH BKN018 BKN050
     FM261900 35015G22KT P6SM SCT025 BKN050=



000
FTUS44 KCRP 260200 AAA
TAFCRP
TAF AMD
KCRP 260238Z 2603/2624 15009KT P6SM OVC012
     FM260600 15006KT 5SM BR OVC008
     FM261000 13004KT 3SM BR OVC003
     FM261300 30008KT P6SM -SHRA BKN008 OVC015
     FM261500 36017G24KT P6SM -SHRA OVC015
     FM262100 36019G26KT P6SM BKN025 BKN050=



000
FTUS44 KCRP 260200 AAA
TAFALI
TAF AMD
KALI 260236Z 2603/2624 14006KT P6SM OVC010
     FM260500 14005KT 6SM BR OVC008
     FM260800 13005KT 3SM BR OVC004
     FM261200 30007KT P6SM -SHRA BKN012 OVC025
     FM261430 36016G23KT P6SM VCSH OVC015
     FM261900 35018G25KT P6SM SCT025 BKN050=



000
FTUS44 KCRP 260200 AAA
TAFALI
TAF AMD
KALI 260236Z 2603/2624 14006KT P6SM OVC010
     FM260500 14005KT 6SM BR OVC008
     FM260800 13005KT 3SM BR OVC004
     FM261200 30007KT P6SM -SHRA BKN012 OVC025
     FM261430 36016G23KT P6SM VCSH OVC015
     FM261900 35018G25KT P6SM SCT025 BKN050=



000
FTUS44 KCRP 252300
TAFCRP
TAF
KCRP 252329Z 2600/2624 14016G21KT P6SM SCT016 OVC022
      TEMPO 2600/2603 BKN016 OVC022
     FM260300 15012KT P6SM OVC012
     FM260700 15008KT 5SM BR OVC008
     FM261000 13004KT 3SM BR OVC003
     FM261430 30008KT P6SM -SHRA BKN008 OVC015
     FM261600 36017G24KT P6SM -SHRA OVC015
     FM262100 36019G26KT P6SM BKN025 BKN050=



000
FTUS44 KCRP 252300
TAFVCT
TAF
KVCT 252329Z 2600/2624 15014KT P6SM SCT025 BKN250
      TEMPO 2600/2602 BKN025 OVC250
     FM260200 15008KT P6SM SCT012 OVC025
     FM260500 17005KT 5SM BR BKN008 OVC015
      TEMPO 2608/2612 2SM -SHRA BR OVC008
     FM261200 34010KT 4SM -SHRA BR OVC005
     FM261430 35018G25KT P6SM VCSH BKN018 BKN050
     FM261900 35015G22KT P6SM SCT025 BKN050=



000
FTUS44 KCRP 252300
TAFALI
TAF
KALI 252329Z 2600/2624 14013KT P6SM BKN018 OVC028
     FM260300 14010KT P6SM OVC008
     FM260800 13005KT 3SM BR OVC004
     FM261330 30007KT P6SM -SHRA BKN012 OVC025
     FM261530 36016G23KT P6SM VCSH OVC015
     FM261900 35018G25KT P6SM SCT025 BKN050=



000
FTUS44 KCRP 252300
TAFLRD
TAF
KLRD 252329Z 2600/2624 12015KT P6SM BKN035 OVC250
     FM260300 13012KT P6SM BKN018 OVC035
     FM260700 15006KT P6SM BKN008 OVC015
     FM261000 VRB05KT 4SM BR OVC004
     FM261300 36010KT P6SM -SHRA BKN008 OVC015
     FM261500 36018G26KT P6SM OVC025
     FM262000 35017G25KT P6SM SCT030 BKN050=



000
FTUS44 KCRP 251700
TAFVCT
TAF
KVCT 251733Z 2518/2618 15014KT P6SM SCT025 BKN250
      TEMPO 2518/2520 BKN025 OVC250
     FM260100 15007KT P6SM OVC008
     FM260700 17005KT 2SM BR OVC005
      TEMPO 2608/2612 1SM -SHRA BR OVC003
     FM261300 34010KT 4SM -SHRA BR BKN008 OVC015
     FM261430 35018G25KT P6SM VCSH SCT025 BKN150=



000
FTUS44 KCRP 251700
TAFCRP
TAF
KCRP 251733Z 2518/2618 15017G25KT P6SM BKN020 OVC250
      TEMPO 2518/2522 SCT020 BKN250
     FM260100 15012KT P6SM OVC012
     FM260400 15008KT P6SM OVC004
     FM261000 13004KT 5SM BR OVC002
     FM261430 30008KT P6SM -SHRA BKN008 OVC011
     FM261630 36018G25KT P6SM -SHRA SCT015 BKN050=



000
FTUS44 KCRP 251700
TAFLRD
TAF
KLRD 251733Z 2518/2618 15012KT P6SM BKN015 OVC250
      TEMPO 2518/2520 SCT015 BKN250
     FM260400 14010KT P6SM OVC008
     FM261000 VRB05KT 4SM BR OVC003
     FM261300 36010KT P6SM -SHRA BKN008 OVC015
     FM261500 36018G26KT P6SM SCT030 BKN150=



000
FTUS44 KCRP 251700
TAFALI
TAF
KALI 251733Z 2518/2618 15013KT P6SM BKN020 OVC250
      TEMPO 2519/2523 SCT020 BKN250
     FM260200 14010KT P6SM OVC004
     FM260800 13004KT 1SM BR OVC002
     FM261400 30007KT P6SM -SHRA BKN015 OVC050
     FM261600 36015G22KT P6SM VCSH SCT015 BKN080=



000
FTUS44 KCRP 251500 AAA
TAFCRP
TAF AMD
KCRP 251539Z 2516/2612 15015G25KT P6SM SCT015 BKN250
      TEMPO 2516/2519 BKN015
     FM260100 15012KT P6SM OVC012
     FM260600 16005KT 3SM BR OVC005=



000
FTUS44 KCRP 251500 AAA
TAFVCT
TAF AMD
KVCT 251536Z 2516/2612 15010KT P6SM SCT015 OVC250
      TEMPO 2516/2518 BKN015
     FM251800 15015G25KT P6SM SCT025 BKN250
     FM260100 15008KT P6SM OVC010
     FM260700 17005KT 2SM BR OVC005=



000
FTUS44 KCRP 251100
TAFALI
TAF
KALI 251130Z 2512/2612 14004KT 1/2SM FG VV002
     FM251500 16012KT P6SM OVC009
     FM251700 15015G22KT P6SM OVC020
     FM260200 15010KT 4SM BR OVC008
     FM260700 15005KT 1SM BR OVC002=



000
FTUS44 KCRP 251100
TAFVCT
TAF
KVCT 251130Z 2512/2612 15004KT 1/2SM FG OVC006
      TEMPO 2512/2515 1/4SM FG VV003
     FM251500 15007KT P6SM OVC012
     FM251700 15015G25KT P6SM SCT025
     FM260100 15008KT P6SM OVC010
     FM260700 17005KT 2SM BR OVC005=



000
FTUS44 KCRP 251100
TAFVCT
TAF
KVCT 251130Z 2512/2612 15004KT 1/2SM FG OVC006
      TEMPO 2512/2515 1/4SM FG VV003
     FM251500 15007KT P6SM OVC012
     FM251700 15015G25KT P6SM SCT025
     FM260100 15008KT P6SM OVC010
     FM260700 17005KT 2SM BR OVC005=



000
FTUS44 KCRP 251100
TAFALI
TAF
KALI 251130Z 2512/2612 14004KT 1/2SM FG VV002
     FM251500 16012KT P6SM OVC009
     FM251700 15015G22KT P6SM OVC020
     FM260200 15010KT 4SM BR OVC008
     FM260700 15005KT 1SM BR OVC002=



000
FTUS44 KCRP 251100
TAFCRP
TAF
KCRP 251130Z 2512/2612 14005KT P6SM FEW008
     FM251500 16012KT P6SM OVC012
     FM251700 15015G25KT P6SM OVC025
     FM260100 15012KT P6SM OVC012
     FM260600 16005KT 3SM BR OVC005=



000
FTUS44 KCRP 251100
TAFLRD
TAF
KLRD 251130Z 2512/2612 15007KT P6SM OVC008
     FM251500 14012KT P6SM OVC015
     FM251800 15014KT P6SM BKN040
     FM260300 14010KT P6SM OVC015
     FM261000 15005KT 4SM BR OVC008=



000
FTUS44 KCRP 251100
TAFCRP
TAF
KCRP 251130Z 2512/2612 14005KT P6SM FEW008
     FM251500 16012KT P6SM OVC012
     FM251700 15015G25KT P6SM OVC025
     FM260100 15012KT P6SM OVC012
     FM260600 16005KT 3SM BR OVC005=



000
FTUS44 KCRP 251100
TAFLRD
TAF
KLRD 251130Z 2512/2612 15007KT P6SM OVC008
     FM251500 14012KT P6SM OVC015
     FM251800 15014KT P6SM BKN040
     FM260300 14010KT P6SM OVC015
     FM261000 15005KT 4SM BR OVC008=



000
FTUS44 KCRP 250900 AAA
TAFVCT
TAF AMD
KVCT 250958Z 2510/2606 16004KT 2SM BR OVC006
      TEMPO 2510/2514 1/4SM FG VV003
     FM251400 15007KT P6SM BKN007
     FM251600 15015G22KT P6SM SCT025
     FM260100 15010KT P6SM OVC012=



000
FTUS44 KCRP 250900 AAA
TAFCRP
TAF AMD
KCRP 250943Z 2510/2606 15010KT P6SM FEW007
     FM251100 16005KT 6SM BR BKN007
     FM251500 16012KT P6SM BKN015
     FM251700 15015G25KT P6SM BKN025
     FM260100 15012KT P6SM OVC012=



000
FTUS44 KCRP 250900 AAA
TAFCRP
TAF AMD
KCRP 250943Z 2510/2606 15010KT P6SM FEW007
     FM251100 16005KT 6SM BR BKN007
     FM251500 16012KT P6SM BKN015
     FM251700 15015G25KT P6SM BKN025
     FM260100 15012KT P6SM OVC012=



000
FTUS44 KCRP 250900 AAB
TAFALI
TAF AMD
KALI 250941Z 2510/2606 14004KT 1/4SM FG VV002
     FM251500 16012KT P6SM BKN015
     FM251700 15015G22KT P6SM BKN025
     FM260100 15010KT P6SM OVC012=



000
FTUS44 KCRP 250700 AAA
TAFALI
TAF AMD
KALI 250720Z 2507/2606 17004KT 4SM BR BKN006
      TEMPO 2507/2511 2SM BR OVC002
     FM251500 16012KT P6SM BKN015
     FM251700 15015G22KT P6SM BKN025
     FM260100 15010KT P6SM OVC012=



000
FTUS44 KCRP 250500
TAFVCT
TAF
KVCT 250530Z 2506/2606 16008KT P6SM SKC
     FM250800 16004KT 4SM BR BKN005
      TEMPO 2510/2514 1SM BR OVC002
     FM251400 15007KT P6SM BKN007
     FM251600 15015G22KT P6SM SCT025
     FM260100 15010KT P6SM OVC012=



000
FTUS44 KCRP 250500
TAFLRD
TAF
KLRD 250530Z 2506/2606 15010KT P6SM SKC
     FM251100 15007KT P6SM BKN005
      TEMPO 2511/2515 SCT005
     FM251500 14012KT P6SM SCT025
     FM251800 15014KT P6SM BKN040
     FM260300 14010KT P6SM OVC015=



000
FTUS44 KCRP 250500
TAFALI
TAF
KALI 250530Z 2506/2606 16010KT P6SM SKC
     FM250900 17004KT 4SM BR BKN006
      TEMPO 2510/2514 2SM BR OVC002
     FM251500 16012KT P6SM BKN015
     FM251700 15015G22KT P6SM BKN025
     FM260100 15010KT P6SM OVC012=



000
FTUS44 KCRP 250500
TAFLRD
TAF
KLRD 250530Z 2506/2606 15010KT P6SM SKC
     FM251100 15007KT P6SM BKN005
      TEMPO 2511/2515 SCT005
     FM251500 14012KT P6SM SCT025
     FM251800 15014KT P6SM BKN040
     FM260300 14010KT P6SM OVC015=



000
FTUS44 KCRP 250500
TAFCRP
TAF
KCRP 250530Z 2506/2606 15010KT P6SM SKC
     FM250800 16005KT 5SM BR BKN007
     FM251500 16012KT P6SM BKN015
     FM251700 15015G25KT P6SM BKN025
     FM260100 15012KT P6SM OVC012=



000
FTUS44 KCRP 250500
TAFVCT
TAF
KVCT 250530Z 2506/2606 16008KT P6SM SKC
     FM250800 16004KT 4SM BR BKN005
      TEMPO 2510/2514 1SM BR OVC002
     FM251400 15007KT P6SM BKN007
     FM251600 15015G22KT P6SM SCT025
     FM260100 15010KT P6SM OVC012=



000
FTUS44 KCRP 250500
TAFCRP
TAF
KCRP 250530Z 2506/2606 15010KT P6SM SKC
     FM250800 16005KT 5SM BR BKN007
     FM251500 16012KT P6SM BKN015
     FM251700 15015G25KT P6SM BKN025
     FM260100 15012KT P6SM OVC012=



000
FTUS44 KCRP 250500
TAFALI
TAF
KALI 250530Z 2506/2606 16010KT P6SM SKC
     FM250900 17004KT 4SM BR BKN006
      TEMPO 2510/2514 2SM BR OVC002
     FM251500 16012KT P6SM BKN015
     FM251700 15015G22KT P6SM BKN025
     FM260100 15010KT P6SM OVC012=



000
FTUS44 KCRP 242300
TAFVCT
TAF
KVCT 242329Z 2500/2524 16008KT P6SM SKC
      TEMPO 2503/2507 SCT007
     FM250700 16004KT 4SM BR BKN005
      TEMPO 2510/2514 1/2SM FG VV002
     FM251400 15007KT P6SM BKN007
     FM251600 15012KT P6SM SCT025=



000
FTUS44 KCRP 242300
TAFCRP
TAF
KCRP 242329Z 2500/2524 15012KT P6SM SKC
     FM250900 16005KT P6SM SCT007
      TEMPO 2509/2513 5SM BR BKN007
     FM251400 16012KT P6SM BKN015
     FM251700 15016G20KT P6SM BKN025=



000
FTUS44 KCRP 242300
TAFVCT
TAF
KVCT 242329Z 2500/2524 16008KT P6SM SKC
      TEMPO 2503/2507 SCT007
     FM250700 16004KT 4SM BR BKN005
      TEMPO 2510/2514 1/2SM FG VV002
     FM251400 15007KT P6SM BKN007
     FM251600 15012KT P6SM SCT025=



000
FTUS44 KCRP 242300
TAFLRD
TAF
KLRD 242329Z 2500/2524 15010KT P6SM SKC
     FM251100 15007KT P6SM BKN005
      TEMPO 2511/2515 SCT005
     FM251500 14012KT P6SM SCT025
     FM251800 15014KT P6SM SCT040=



000
FTUS44 KCRP 242300
TAFALI
TAF
KALI 242329Z 2500/2524 14010KT P6SM SKC
     FM250700 16004KT 5SM BR BKN006
      TEMPO 2510/2514 2SM BR OVC002
     FM251500 16012KT P6SM BKN015
     FM251700 15015G19KT P6SM BKN025=



000
FTUS44 KCRP 242300
TAFLRD
TAF
KLRD 242329Z 2500/2524 15010KT P6SM SKC
     FM251100 15007KT P6SM BKN005
      TEMPO 2511/2515 SCT005
     FM251500 14012KT P6SM SCT025
     FM251800 15014KT P6SM SCT040=



000
FTUS44 KCRP 242300
TAFCRP
TAF
KCRP 242329Z 2500/2524 15012KT P6SM SKC
     FM250900 16005KT P6SM SCT007
      TEMPO 2509/2513 5SM BR BKN007
     FM251400 16012KT P6SM BKN015
     FM251700 15016G20KT P6SM BKN025=



000
FTUS44 KCRP 242300
TAFALI
TAF
KALI 242329Z 2500/2524 14010KT P6SM SKC
     FM250700 16004KT 5SM BR BKN006
      TEMPO 2510/2514 2SM BR OVC002
     FM251500 16012KT P6SM BKN015
     FM251700 15015G19KT P6SM BKN025=



000
FTUS44 KCRP 241700
TAFCRP
TAF
KCRP 241732Z 2418/2518 14010KT P6SM BKN028
     FM241900 15014KT P6SM SCT030
     FM250300 15010KT P6SM FEW008
     FM250800 16005KT P6SM SCT007
      TEMPO 2509/2513 5SM BR BKN007
     FM251400 15012KT P6SM BKN015
     FM251700 15014G18KT P6SM SCT025 BKN250=



000
FTUS44 KCRP 241700
TAFVCT
TAF
KVCT 241732Z 2418/2518 17011KT P6SM SCT035
      TEMPO 2418/2420 BKN035
     FM250700 16004KT 4SM BR BKN002
     FM250900 15003KT 1/2SM FG VV002
     FM251430 16007KT P6SM BKN007
     FM251600 16012KT P6SM SCT025 BKN250=



000
FTUS44 KCRP 241700
TAFALI
TAF
KALI 241732Z 2418/2518 15014KT P6SM FEW030
     FM250100 15008KT P6SM FEW010
     FM250700 15006KT 5SM BR BKN004
      TEMPO 2510/2514 2SM BR OVC002
     FM251400 15009KT P6SM BKN015
     FM251630 15014G18KT P6SM SCT025 BKN250=



000
FTUS44 KCRP 241700
TAFLRD
TAF
KLRD 241732Z 2418/2518 14010KT P6SM SKC
     FM251000 15007KT P6SM BKN005
      TEMPO 2510/2514 SCT005
     FM251500 15012KT P6SM FEW015 SCT250=



000
FTUS44 KCRP 241700
TAFVCT
TAF
KVCT 241732Z 2418/2518 17011KT P6SM SCT035
      TEMPO 2418/2420 BKN035
     FM250700 16004KT 4SM BR BKN002
     FM250900 15003KT 1/2SM FG VV002
     FM251430 16007KT P6SM BKN007
     FM251600 16012KT P6SM SCT025 BKN250=



000
FTUS44 KCRP 241700
TAFLRD
TAF
KLRD 241732Z 2418/2518 14010KT P6SM SKC
     FM251000 15007KT P6SM BKN005
      TEMPO 2510/2514 SCT005
     FM251500 15012KT P6SM FEW015 SCT250=



000
FTUS44 KCRP 241700
TAFCRP
TAF
KCRP 241732Z 2418/2518 14010KT P6SM BKN028
     FM241900 15014KT P6SM SCT030
     FM250300 15010KT P6SM FEW008
     FM250800 16005KT P6SM SCT007
      TEMPO 2509/2513 5SM BR BKN007
     FM251400 15012KT P6SM BKN015
     FM251700 15014G18KT P6SM SCT025 BKN250=



000
FTUS44 KCRP 241700
TAFALI
TAF
KALI 241732Z 2418/2518 15014KT P6SM FEW030
     FM250100 15008KT P6SM FEW010
     FM250700 15006KT 5SM BR BKN004
      TEMPO 2510/2514 2SM BR OVC002
     FM251400 15009KT P6SM BKN015
     FM251630 15014G18KT P6SM SCT025 BKN250=



000
FTUS44 KCRP 241500 AAB
TAFCRP
TAF AMD
KCRP 241545Z 2416/2512 16012KT P6SM BKN015
      TEMPO 2417/2418 SCT015
     FM241830 15015G19KT P6SM FEW028
     FM250300 14010KT P6SM SCT010
     FM251000 16005KT 5SM BR SCT008=



000
FTUS44 KCRP 241500 AAB
TAFCRP
TAF AMD
KCRP 241545Z 2416/2512 16012KT P6SM BKN015
      TEMPO 2417/2418 SCT015
     FM241830 15015G19KT P6SM FEW028
     FM250300 14010KT P6SM SCT010
     FM251000 16005KT 5SM BR SCT008=



000
FTUS44 KCRP 241500 AAA
TAFVCT
TAF AMD
KVCT 241505Z 2415/2512 17011KT P6SM FEW009 SCT025
     FM250300 15007KT P6SM FEW005
     FM250900 16004KT 3SM BR BKN003=



000
FTUS44 KCRP 241500 AAB
TAFLRD
TAF AMD
KLRD 241503Z 2415/2512 15011KT P6SM SKC
     FM250200 14008KT P6SM SKC
     FM250800 15008KT P6SM BKN005=



000
FTUS44 KCRP 241500 AAA
TAFCRP
TAF AMD
KCRP 241502Z 2415/2512 16012KT P6SM FEW009 SCT025
      TEMPO 2415/2417 BKN025
     FM241800 14015G19KT P6SM FEW028
     FM250300 14010KT P6SM SCT010
     FM251000 16005KT 5SM BR SCT008=



000
FTUS44 KCRP 241500 AAA
TAFCRP
TAF AMD
KCRP 241502Z 2415/2512 16012KT P6SM FEW009 SCT025
      TEMPO 2415/2417 BKN025
     FM241800 14015G19KT P6SM FEW028
     FM250300 14010KT P6SM SCT010
     FM251000 16005KT 5SM BR SCT008=



000
FTUS44 KCRP 241300 AAA
TAFCRP
TAF AMD
KCRP 241314Z 2413/2512 15005KT 5SM BR SCT004 BKN015
      TEMPO 2414/2415 P6SM NSW BKN015
     FM241500 15007KT P6SM FEW009 BKN025
     FM241800 14015G19KT P6SM FEW028
     FM250300 14010KT P6SM SCT010
     FM251000 16005KT 5SM BR SCT008=



000
FTUS44 KCRP 241300 AAA
TAFCRP
TAF AMD
KCRP 241314Z 2413/2512 15005KT 5SM BR SCT004 BKN015
      TEMPO 2414/2415 P6SM NSW BKN015
     FM241500 15007KT P6SM FEW009 BKN025
     FM241800 14015G19KT P6SM FEW028
     FM250300 14010KT P6SM SCT010
     FM251000 16005KT 5SM BR SCT008=



000
FTUS44 KCRP 241200 AAA
TAFALI
TAF AMD
KALI 241244Z 2413/2512 17006KT P6SM SCT004 BKN012
      TEMPO 2413/2415 4SM BR BKN004 OVC012
     FM241530 18007KT P6SM FEW009 SCT025
     FM241700 16012KT P6SM FEW030
     FM250300 13007KT P6SM FEW010
     FM251000 16004KT 3SM BR BKN003=



000
FTUS44 KCRP 241200 AAA
TAFALI
TAF AMD
KALI 241244Z 2413/2512 17006KT P6SM SCT004 BKN012
      TEMPO 2413/2415 4SM BR BKN004 OVC012
     FM241530 18007KT P6SM FEW009 SCT025
     FM241700 16012KT P6SM FEW030
     FM250300 13007KT P6SM FEW010
     FM251000 16004KT 3SM BR BKN003=



000
FTUS44 KCRP 241200 AAA
TAFLRD
TAF AMD
KLRD 241213Z 2412/2512 14008KT P6SM BKN005
      TEMPO 2413/2416 5SM BR SCT006
     FM241600 16012KT P6SM SKC
     FM250200 14008KT P6SM SKC
     FM250800 15008KT P6SM BKN005=



000
FTUS44 KCRP 241200 AAA
TAFLRD
TAF AMD
KLRD 241213Z 2412/2512 14008KT P6SM BKN005
      TEMPO 2413/2416 5SM BR SCT006
     FM241600 16012KT P6SM SKC
     FM250200 14008KT P6SM SKC
     FM250800 15008KT P6SM BKN005=



000
FTUS44 KCRP 241100
TAFVCT
TAF
KVCT 241120Z 2412/2512 16003KT 2SM BR SCT003
      TEMPO 2412/2414 1/2SM FG BKN002
     FM241500 17007KT P6SM FEW009 BKN025
     FM241700 17012KT P6SM FEW025
     FM250300 15007KT P6SM FEW005
     FM250900 16004KT 3SM BR BKN003=



000
FTUS44 KCRP 241100
TAFCRP
TAF
KCRP 241120Z 2412/2512 15005KT 6SM BR SCT004
      TEMPO 2412/2414 3SM BR MIFG BKN004
     FM241500 15007KT P6SM FEW009 BKN025
     FM241800 14015G19KT P6SM FEW028
     FM250300 14010KT P6SM SCT010
     FM251000 16005KT 5SM BR SCT008=



000
FTUS44 KCRP 241100
TAFALI
TAF
KALI 241120Z 2412/2512 17003KT 1SM BR BKN004
      TEMPO 2412/2414 1/4SM FG BKN002
     FM241500 18007KT P6SM FEW009 SCT025
     FM241700 16012KT P6SM FEW030
     FM250300 13007KT P6SM FEW010
     FM251000 16004KT 3SM BR BKN003=



000
FTUS44 KCRP 241100
TAFLRD
TAF
KLRD 241120Z 2412/2512 14005KT 6SM BR FEW006
      TEMPO 2412/2415 1SM BR SCT003
     FM241600 16012KT P6SM SKC
     FM250200 14008KT P6SM SKC
     FM250800 15008KT P6SM BKN005=



    US Dept of Commerce
    National Oceanic and Atmospheric Administration
    National Weather Service
    1325 East West Highway
    Silver Spring, MD 20910
    Page Author: NWS Internet Services Team
Disclaimer
Information Quality
Credits
Glossary
Privacy Policy
Freedom of Information Act (FOIA)
About Us
Career Opportunities